Farragut, Tennessee
Current Conditions -  °F | °C
As of 5:53 AM on Thursday 18 Dec 2014 (Local Time) from KTYS Reporting Station
Overcast Overcast  
Wind Chill: 30°   Ceiling: 10000
Heat Index: 34°   Visibility: 10mi
Dew Point: 28°   Wind: 5mph
Humidity: 79%   Direction: 350°N
Pressure: 30.23"   Gusts: NA
Location:  35.8674°N, 84.0989°W
Report Text: KTYS 181053Z 35004KT 10SM BKN100 OVC120 01/M02 A3023 RMK AO2 SLP242 T00111022
Loading
Personal Weather Stations






























Interactive Weather Map New forecast layout! Learn more

10-Day Weather Forecast

Advertisements
Track Severe Weather on mobile